Time;durP1;ratioP1;P1;durP2;ratioP2;P2;SDS_P1;SDS_P2;PMS_P1;PMS_P2;Temp;Humidity;BMP_temperature;BMP_pressure;BME280_temperature;BME280_humidity;BME280_pressure;Samples;Min_cycle;Max_cycle;Signal;HPM_P1;HPM_P2
2022/12/15 00:40:57;;;;;;;;;;;22.60;62.10;;;;;;5042696;28;19994;-71
2022/12/15 00:43:31;;;;;;;;;;;22.90;61.10;;;;;;5045960;28;19952;-70
2022/12/15 00:48:42;;;;;;;;;;;23.10;60.70;;;;;;5045887;28;19943;-69
2022/12/15 00:51:09;;;;;;;;;;;22.90;60.80;;;;;;5042513;28;20084;-68
2022/12/15 01:21:07;;;;;;;;;;;25.20;60.10;;;;;;5045718;28;19961;-70
2022/12/15 01:23:34;;;;;;;;;;;25.40;59.30;;;;;;5044594;28;19923;-71
2022/12/15 01:26:01;;;;;;;;;;;25.50;58.90;;;;;;5044494;28;19928;-70
2022/12/15 01:28:27;;;;;;;;;;;25.30;59.20;;;;;;5042990;28;19920;-71
2022/12/15 01:30:54;;;;;;;;;;;25.40;60.00;;;;;;5046291;28;19970;-71
2022/12/15 01:33:21;;;;;;;;;;;25.60;59.00;;;;;;5044355;28;19913;-68
2022/12/15 01:35:58;;;;;;;;;;;25.70;59.20;;;;;;5041171;28;19920;-67
2022/12/15 01:38:25;;;;;;;;;;;25.70;59.40;;;;;;5047215;28;19917;-69
2022/12/15 01:40:53;;;;;;;;;;;25.70;59.40;;;;;;5043904;28;19924;-68
2022/12/15 01:43:22;;;;;;;;;;;25.70;59.10;;;;;;5044914;28;19943;-68
2022/12/15 01:45:55;;;;;;;;;;;25.70;59.10;;;;;;5042838;28;19919;-68
2022/12/15 01:48:34;;;;;;;;;;;25.80;59.40;;;;;;5045532;28;19974;-69
2022/12/15 01:51:00;;;;;;;;;;;26.00;59.40;;;;;;5038817;28;19916;-70
2022/12/15 01:53:28;;;;;;;;;;;25.90;60.30;;;;;;5045609;28;20032;-69
2022/12/15 01:55:55;;;;;;;;;;;25.90;58.90;;;;;;5042819;28;19969;-69
2022/12/15 01:58:22;;;;;;;;;;;25.90;59.00;;;;;;5047199;28;20357;-71
2022/12/15 02:00:49;;;;;;;;;;;25.90;59.00;;;;;;5043340;28;19920;-69
2022/12/15 02:03:15;;;;;;;;;;;26.10;59.40;;;;;;5045194;28;19917;-71
2022/12/15 02:05:42;;;;;;;;;;;26.30;59.60;;;;;;5045962;28;20043;-69
2022/12/15 02:08:10;;;;;;;;;;;26.40;59.40;;;;;;5044136;28;19920;-69
2022/12/15 02:10:52;;;;;;;;;;;26.40;60.60;;;;;;5046585;28;19912;-68
2022/12/15 02:13:35;;;;;;;;;;;26.50;60.10;;;;;;5045924;28;19923;-70
2022/12/15 02:16:10;;;;;;;;;;;26.50;59.00;;;;;;5042150;28;19920;-67
2022/12/15 02:18:36;;;;;;;;;;;26.60;59.70;;;;;;5046441;28;19967;-68
2022/12/15 02:21:09;;;;;;;;;;;26.70;59.20;;;;;;5043478;28;20399;-68
2022/12/15 02:23:54;;;;;;;;;;;26.80;59.90;;;;;;5045620;28;20011;-68
2022/12/15 02:26:39;;;;;;;;;;;26.70;59.70;;;;;;5046277;28;19932;-69
2022/12/15 02:29:18;;;;;;;;;;;26.60;60.10;;;;;;5046976;28;20499;-69
2022/12/15 02:31:51;;;;;;;;;;;26.40;61.10;;;;;;5051192;28;19954;-68
2022/12/15 02:34:17;;;;;;;;;;;26.30;61.30;;;;;;5048741;28;19912;-70
2022/12/15 02:36:46;;;;;;;;;;;26.40;61.90;;;;;;5050679;28;19909;-69
2022/12/15 02:39:13;;;;;;;;;;;26.50;61.60;;;;;;5048338;28;19981;-70
2022/12/15 02:41:41;;;;;;;;;;;26.60;60.70;;;;;;5048245;28;20399;-69
2022/12/15 02:44:26;;;;;;;;;;;26.60;59.90;;;;;;5047668;28;20751;-67
2022/12/15 02:47:11;;;;;;;;;;;26.50;60.60;;;;;;5046883;28;19942;-68
2022/12/15 02:49:56;;;;;;;;;;;26.50;61.90;;;;;;5049725;28;19967;-67
2022/12/15 02:52:22;;;;;;;;;;;26.80;60.40;;;;;;5049872;28;19909;-68
2022/12/15 02:55:08;;;;;;;;;;;27.10;60.70;;;;;;5050609;28;19916;-68
2022/12/15 02:57:43;;;;;;;;;;;27.30;60.50;;;;;;5050446;28;19927;-67
2022/12/15 03:00:10;;;;;;;;;;;27.70;61.70;;;;;;5046202;28;20007;-69
2022/12/15 03:02:41;;;;;;;;;;;27.70;60.30;;;;;;5050312;28;19920;-67
2022/12/15 03:05:08;;;;;;;;;;;28.10;60.40;;;;;;5036787;28;19936;-67
2022/12/15 03:07:35;;;;;;;;;;;28.60;59.80;;;;;;5039166;28;19921;-70
2022/12/15 03:10:03;;;;;;;;;;;28.90;59.80;;;;;;5037248;28;19909;-68
2022/12/15 03:12:29;;;;;;;;;;;29.10;58.40;;;;;;5039906;28;19908;-70
2022/12/15 03:14:56;;;;;;;;;;;29.60;58.30;;;;;;5038911;28;19955;-70
2022/12/15 03:17:23;;;;;;;;;;;29.70;58.30;;;;;;5039371;28;19909;-69
2022/12/15 03:19:50;;;;;;;;;;;30.30;58.20;;;;;;5040256;28;19912;-68
2022/12/15 03:22:16;;;;;;;;;;;31.30;56.60;;;;;;5037166;28;19919;-69
2022/12/15 03:24:43;;;;;;;;;;;31.40;55.70;;;;;;5038549;28;19909;-70
2022/12/15 03:27:09;;;;;;;;;;;31.80;55.30;;;;;;5035929;28;20370;-69
2022/12/15 03:29:36;;;;;;;;;;;32.60;55.10;;;;;;5039578;28;19908;-69
2022/12/15 03:32:03;;;;;;;;;;;32.80;54.90;;;;;;5035251;28;19909;-70
2022/12/15 03:34:29;;;;;;;;;;;32.70;53.80;;;;;;5039694;28;19909;-70
2022/12/15 03:36:56;;;;;;;;;;;32.70;54.30;;;;;;5039247;28;20504;-69
2022/12/15 03:39:23;;;;;;;;;;;33.20;53.60;;;;;;5036358;28;20060;-68
2022/12/15 03:41:49;;;;;;;;;;;33.70;53.40;;;;;;5039649;28;19909;-69
2022/12/15 03:44:16;;;;;;;;;;;34.00;53.30;;;;;;5037211;28;19916;-69
2022/12/15 03:46:43;;;;;;;;;;;33.80;53.40;;;;;;5040831;28;20017;-69
2022/12/15 03:49:09;;;;;;;;;;;34.40;51.80;;;;;;5036492;28;19956;-70
2022/12/15 03:51:36;;;;;;;;;;;34.70;51.90;;;;;;5040234;28;19912;-71
2022/12/15 03:54:02;;;;;;;;;;;34.50;52.30;;;;;;5038504;28;19915;-71
2022/12/15 03:56:29;;;;;;;;;;;34.40;53.30;;;;;;5038533;28;19909;-70
2022/12/15 03:58:56;;;;;;;;;;;34.30;51.90;;;;;;5039672;28;19931;-69
2022/12/15 04:01:26;;;;;;;;;;;34.10;52.80;;;;;;5036887;28;19908;-71
2022/12/15 04:03:53;;;;;;;;;;;34.30;52.00;;;;;;5039799;28;19909;-69
2022/12/15 04:06:19;;;;;;;;;;;34.20;51.80;;;;;;5036706;28;20345;-70
2022/12/15 04:08:46;;;;;;;;;;;35.00;51.50;;;;;;5040244;28;19971;-70
2022/12/15 04:11:13;;;;;;;;;;;35.10;51.60;;;;;;5035951;28;19909;-69
2022/12/15 04:13:39;;;;;;;;;;;34.80;51.00;;;;;;5039991;28;19909;-68
2022/12/15 04:16:06;;;;;;;;;;;35.10;51.80;;;;;;5037985;28;19909;-69
2022/12/15 04:18:33;;;;;;;;;;;35.30;52.80;;;;;;5038427;28;19940;-70
2022/12/15 04:20:59;;;;;;;;;;;36.60;51.10;;;;;;5038364;28;20011;-67
2022/12/15 04:23:26;;;;;;;;;;;36.30;50.90;;;;;;5035646;28;20366;-70
2022/12/15 05:32:03;;;;;;;;;;;30.50;56.40;;;;;;5049721;28;20007;-69
2022/12/15 05:34:31;;;;;;;;;;;30.90;55.20;;;;;;5056675;28;19982;-69
2022/12/15 05:36:59;;;;;;;;;;;30.70;56.10;;;;;;5050755;28;19916;-68
2022/12/15 05:39:26;;;;;;;;;;;30.70;56.90;;;;;;5043569;28;20038;-68
2022/12/15 05:41:54;;;;;;;;;;;30.40;57.60;;;;;;5056377;28;20623;-69
2022/12/15 05:44:23;;;;;;;;;;;30.60;57.40;;;;;;5035971;28;19915;-68
2022/12/15 05:46:50;;;;;;;;;;;30.40;57.00;;;;;;5045943;28;20315;-69
2022/12/15 05:49:17;;;;;;;;;;;30.10;57.10;;;;;;5032866;28;19909;-68
2022/12/15 05:51:45;;;;;;;;;;;29.70;57.20;;;;;;5046706;28;20347;-70
2022/12/15 05:54:14;;;;;;;;;;;29.20;57.80;;;;;;5034984;28;20004;-68
2022/12/15 05:56:41;;;;;;;;;;;28.70;58.90;;;;;;5051199;28;19974;-69
2022/12/15 05:59:07;;;;;;;;;;;28.30;61.10;;;;;;5038777;28;20362;-68
2022/12/15 06:01:34;;;;;;;;;;;28.00;60.70;;;;;;5053012;28;20406;-71
2022/12/15 06:04:00;;;;;;;;;;;27.60;61.60;;;;;;5050454;28;19908;-69
2022/12/15 06:06:27;;;;;;;;;;;26.60;62.70;;;;;;5051836;28;20777;-69
2022/12/15 06:08:54;;;;;;;;;;;25.90;64.00;;;;;;5056656;28;20277;-69
2022/12/15 06:11:21;;;;;;;;;;;25.50;65.00;;;;;;5053858;28;19908;-68
2022/12/15 06:13:48;;;;;;;;;;;25.40;65.70;;;;;;5042177;28;19920;-68
2022/12/15 06:16:15;;;;;;;;;;;25.20;65.40;;;;;;5051818;28;19920;-69
2022/12/15 06:18:44;;;;;;;;;;;24.80;66.00;;;;;;5049404;28;19912;-71
2022/12/15 06:21:12;;;;;;;;;;;24.70;67.60;;;;;;5052642;28;19912;-71
2022/12/15 06:23:40;;;;;;;;;;;24.60;66.70;;;;;;5037297;28;19913;-68
2022/12/15 06:26:09;;;;;;;;;;;24.40;66.60;;;;;;5039031;28;19920;-68
2022/12/15 06:28:36;;;;;;;;;;;24.10;67.10;;;;;;5049236;28;19955;-67
2022/12/15 06:31:05;;;;;;;;;;;23.90;68.40;;;;;;5056473;28;19909;-68
2022/12/15 06:33:31;;;;;;;;;;;23.70;68.10;;;;;;5036810;28;20720;-69
2022/12/15 06:36:02;;;;;;;;;;;23.90;68.70;;;;;;5035755;28;19913;-68
2022/12/15 06:38:29;;;;;;;;;;;24.10;68.40;;;;;;5046846;28;20003;-69
2022/12/15 06:40:56;;;;;;;;;;;24.40;68.20;;;;;;5054306;28;19912;-69
2022/12/15 06:43:22;;;;;;;;;;;24.60;67.70;;;;;;5038281;28;19920;-71
2022/12/15 06:45:50;;;;;;;;;;;24.70;67.00;;;;;;5033896;28;20409;-73
2022/12/15 06:48:17;;;;;;;;;;;24.80;67.00;;;;;;5035084;28;20554;-68
2022/12/15 06:50:45;;;;;;;;;;;24.30;67.20;;;;;;5054608;28;19908;-68
2022/12/15 06:53:18;;;;;;;;;;;24.20;66.70;;;;;;5045724;28;19939;-66
2022/12/15 06:55:46;;;;;;;;;;;24.30;66.60;;;;;;5035991;28;20489;-67
2022/12/15 06:58:13;;;;;;;;;;;24.20;66.60;;;;;;5036544;28;20328;-66
2022/12/15 07:00:41;;;;;;;;;;;24.10;68.60;;;;;;5032059;28;19909;-67
2022/12/15 07:03:16;;;;;;;;;;;24.00;69.00;;;;;;5045994;28;19920;-67
2022/12/15 07:05:44;;;;;;;;;;;23.90;68.70;;;;;;5054826;28;19909;-67
2022/12/15 07:08:12;;;;;;;;;;;23.90;69.50;;;;;;5056555;28;20353;-69
2022/12/15 07:10:39;;;;;;;;;;;23.80;71.50;;;;;;5053268;28;19908;-68
2022/12/15 07:13:07;;;;;;;;;;;23.80;71.40;;;;;;5054846;28;19920;-69
2022/12/15 07:15:33;;;;;;;;;;;23.80;70.20;;;;;;5057323;28;20361;-67
2022/12/15 07:18:00;;;;;;;;;;;23.70;71.10;;;;;;5058384;28;19955;-68
2022/12/15 07:20:27;;;;;;;;;;;23.50;72.40;;;;;;5054112;28;20067;-67
2022/12/15 07:22:54;;;;;;;;;;;23.40;72.00;;;;;;5043868;28;19912;-67
2022/12/15 07:25:21;;;;;;;;;;;23.30;71.30;;;;;;5060096;28;19924;-67
2022/12/15 07:27:48;;;;;;;;;;;23.20;73.00;;;;;;5056041;28;19916;-68
2022/12/15 07:30:16;;;;;;;;;;;22.90;72.60;;;;;;5059575;28;20288;-67
2022/12/15 07:32:43;;;;;;;;;;;22.80;73.40;;;;;;5046019;28;19942;-68
2022/12/15 07:35:10;;;;;;;;;;;22.70;73.00;;;;;;5049915;28;19920;-68
2022/12/15 07:37:36;;;;;;;;;;;22.50;73.80;;;;;;5046646;28;20368;-69
2022/12/15 07:40:04;;;;;;;;;;;22.10;74.10;;;;;;5046512;28;19909;-72
2022/12/15 07:42:31;;;;;;;;;;;22.00;74.10;;;;;;5047474;28;19916;-67
2022/12/15 07:44:57;;;;;;;;;;;22.00;73.20;;;;;;5043807;28;19982;-67
2022/12/15 07:47:24;;;;;;;;;;;22.00;73.80;;;;;;5042944;28;19917;-67
2022/12/15 07:49:50;;;;;;;;;;;22.00;74.80;;;;;;5046048;28;19923;-69
2022/12/15 07:52:17;;;;;;;;;;;22.00;75.00;;;;;;5056224;28;19929;-69
2022/12/15 07:54:44;;;;;;;;;;;22.00;75.30;;;;;;5054810;28;20042;-66
2022/12/15 07:57:10;;;;;;;;;;;21.90;76.00;;;;;;5058376;28;20353;-67
2022/12/15 07:59:37;;;;;;;;;;;21.80;76.80;;;;;;5057876;28;20284;-68
2022/12/15 08:02:04;;;;;;;;;;;21.80;76.80;;;;;;5054067;28;19923;-68
2022/12/15 08:04:30;;;;;;;;;;;21.70;77.50;;;;;;5046041;28;19940;-70
2022/12/15 08:06:57;;;;;;;;;;;21.60;77.60;;;;;;5049818;28;19963;-70
2022/12/15 08:09:24;;;;;;;;;;;21.50;77.00;;;;;;5057360;28;19908;-68
2022/12/15 08:11:51;;;;;;;;;;;21.40;77.40;;;;;;5053643;28;20009;-71
2022/12/15 08:14:17;;;;;;;;;;;21.30;78.60;;;;;;5056668;28;20322;-67
2022/12/15 08:16:44;;;;;;;;;;;21.10;78.80;;;;;;5049012;28;19944;-69
2022/12/15 08:19:12;;;;;;;;;;;20.90;80.00;;;;;;5044174;28;20011;-68
2022/12/15 08:21:39;;;;;;;;;;;20.80;80.60;;;;;;5035885;28;19913;-67
2022/12/15 08:24:07;;;;;;;;;;;20.70;80.00;;;;;;5037375;28;19912;-67
2022/12/15 08:26:34;;;;;;;;;;;20.60;80.90;;;;;;5036929;28;19924;-67
2022/12/15 08:29:05;;;;;;;;;;;20.60;81.50;;;;;;5038942;28;20191;-68
2022/12/15 08:31:32;;;;;;;;;;;20.50;81.50;;;;;;5040378;28;19982;-68
2022/12/15 08:34:00;;;;;;;;;;;20.40;81.60;;;;;;5033985;28;20445;-68
2022/12/15 08:36:27;;;;;;;;;;;20.30;81.80;;;;;;5056732;28;19909;-67
2022/12/15 08:38:55;;;;;;;;;;;20.20;82.40;;;;;;5052813;28;19908;-68
2022/12/15 08:41:27;;;;;;;;;;;20.20;83.00;;;;;;5056686;28;19982;-67
2022/12/15 08:43:53;;;;;;;;;;;20.20;83.00;;;;;;5033273;28;20405;-68
2022/12/15 08:46:25;;;;;;;;;;;20.00;82.80;;;;;;5053751;28;19965;-69
2022/12/15 08:48:54;;;;;;;;;;;19.90;82.50;;;;;;5049198;28;19916;-68
2022/12/15 08:51:21;;;;;;;;;;;20.00;82.80;;;;;;5049493;28;19928;-67
2022/12/15 08:53:48;;;;;;;;;;;19.80;82.80;;;;;;5039066;28;19944;-68
2022/12/15 08:56:16;;;;;;;;;;;19.70;83.40;;;;;;5034913;28;19923;-67
2022/12/15 08:58:44;;;;;;;;;;;19.80;83.50;;;;;;5034384;28;19999;-70
2022/12/15 09:01:12;;;;;;;;;;;19.70;83.80;;;;;;5032429;28;20028;-68
2022/12/15 09:03:39;;;;;;;;;;;19.70;84.00;;;;;;5040936;28;19912;-68
2022/12/15 09:06:07;;;;;;;;;;;19.60;83.90;;;;;;5052613;28;20029;-67
2022/12/15 09:08:34;;;;;;;;;;;19.60;84.30;;;;;;5052996;28;20016;-68
2022/12/15 09:11:01;;;;;;;;;;;19.50;84.60;;;;;;5032731;28;19944;-67
2022/12/15 09:13:28;;;;;;;;;;;19.50;84.80;;;;;;5035709;28;19967;-70
2022/12/15 09:15:57;;;;;;;;;;;19.40;85.40;;;;;;5034899;28;20285;-69
2022/12/15 09:18:24;;;;;;;;;;;19.40;85.60;;;;;;5035340;28;20004;-68
2022/12/15 09:20:51;;;;;;;;;;;19.30;85.70;;;;;;5036066;28;19909;-67
2022/12/15 09:23:17;;;;;;;;;;;19.30;85.80;;;;;;5049714;28;20015;-70
2022/12/15 09:25:45;;;;;;;;;;;19.20;85.30;;;;;;5054755;28;20343;-68
2022/12/15 09:28:12;;;;;;;;;;;19.20;85.10;;;;;;5041955;28;20365;-68
2022/12/15 09:30:39;;;;;;;;;;;19.10;85.80;;;;;;5047774;28;19909;-69
2022/12/15 09:33:06;;;;;;;;;;;19.10;86.90;;;;;;5041104;28;19958;-67
2022/12/15 09:35:32;;;;;;;;;;;19.00;87.70;;;;;;5046946;28;20421;-68
2022/12/15 09:37:59;;;;;;;;;;;19.00;87.90;;;;;;5044458;28;19970;-69
2022/12/15 09:40:26;;;;;;;;;;;19.00;87.60;;;;;;5043301;28;20342;-68
2022/12/15 09:42:54;;;;;;;;;;;19.00;86.00;;;;;;5044680;28;20632;-68
2022/12/15 09:45:23;;;;;;;;;;;18.90;85.90;;;;;;5041748;28;19923;-71
2022/12/15 09:48:02;;;;;;;;;;;18.90;86.30;;;;;;5042886;28;19920;-68
2022/12/15 09:50:32;;;;;;;;;;;19.00;86.30;;;;;;5043073;28;20492;-67
2022/12/15 09:52:59;;;;;;;;;;;19.00;86.80;;;;;;5042824;28;20403;-67
2022/12/15 09:55:27;;;;;;;;;;;19.00;85.50;;;;;;5043533;28;19909;-67
2022/12/15 09:57:54;;;;;;;;;;;18.90;84.90;;;;;;5046189;28;19931;-68
2022/12/15 10:00:43;;;;;;;;;;;18.90;84.80;;;;;;5042936;28;19917;-69
2022/12/15 10:03:10;;;;;;;;;;;18.90;85.30;;;;;;5037024;28;19956;-67
2022/12/15 10:05:52;;;;;;;;;;;18.90;85.60;;;;;;5046039;28;19919;-69
2022/12/15 10:08:20;;;;;;;;;;;18.90;84.90;;;;;;5042632;28;20019;-70
2022/12/15 10:10:53;;;;;;;;;;;18.80;84.90;;;;;;5046873;28;19939;-69
2022/12/15 10:13:24;;;;;;;;;;;18.80;85.40;;;;;;5041848;28;20010;-69
2022/12/15 10:15:56;;;;;;;;;;;18.70;85.60;;;;;;5042205;28;20062;-68
2022/12/15 10:18:26;;;;;;;;;;;18.70;84.80;;;;;;5050027;28;20189;-68
2022/12/15 10:20:54;;;;;;;;;;;18.70;84.90;;;;;;5038524;28;19913;-69
2022/12/15 10:23:20;;;;;;;;;;;18.60;85.30;;;;;;5042863;28;19923;-67
2022/12/15 10:25:48;;;;;;;;;;;18.60;84.70;;;;;;5054155;28;19920;-67
2022/12/15 10:28:40;;;;;;;;;;;18.50;84.40;;;;;;5045208;28;19960;-67
2022/12/15 10:31:12;;;;;;;;;;;18.50;84.80;;;;;;5035364;28;19963;-68
2022/12/15 10:33:41;;;;;;;;;;;18.50;84.90;;;;;;5044289;28;19913;-69
2022/12/15 10:36:12;;;;;;;;;;;18.50;84.70;;;;;;5043981;28;21420;-67
2022/12/15 10:38:41;;;;;;;;;;;18.50;84.70;;;;;;5046063;28;19954;-67
2022/12/15 10:41:12;;;;;;;;;;;18.50;84.60;;;;;;5042008;28;19917;-67
2022/12/15 10:43:40;;;;;;;;;;;18.50;84.80;;;;;;5045051;28;19913;-67
2022/12/15 10:46:17;;;;;;;;;;;18.50;85.20;;;;;;5044263;28;19908;-71
2022/12/15 10:48:45;;;;;;;;;;;18.60;85.60;;;;;;5046065;28;20000;-67
2022/12/15 10:51:31;;;;;;;;;;;18.50;85.90;;;;;;5045272;28;19909;-69
2022/12/15 10:54:02;;;;;;;;;;;18.60;86.20;;;;;;5048820;28;20575;-68
2022/12/15 10:56:29;;;;;;;;;;;18.50;86.30;;;;;;5045666;28;19917;-67
2022/12/15 10:58:57;;;;;;;;;;;18.40;85.30;;;;;;5050667;28;19913;-69
2022/12/15 11:01:25;;;;;;;;;;;18.40;85.60;;;;;;5044014;28;19915;-69
2022/12/15 11:03:52;;;;;;;;;;;18.50;85.60;;;;;;5049788;28;20361;-68
2022/12/15 11:06:20;;;;;;;;;;;18.40;85.20;;;;;;5042976;28;19912;-70
2022/12/15 11:08:48;;;;;;;;;;;18.30;85.30;;;;;;5047457;28;19928;-67
2022/12/15 11:14:15;;;;;;;;;;;18.30;85.40;;;;;;5048414;28;19919;-68
2022/12/15 11:16:45;;;;;;;;;;;18.30;85.50;;;;;;5050244;28;19908;-72
2022/12/15 11:19:21;;;;;;;;;;;18.30;85.50;;;;;;5047612;28;19956;-68
2022/12/15 11:21:49;;;;;;;;;;;18.30;85.70;;;;;;5047700;28;19909;-69
2022/12/15 11:24:22;;;;;;;;;;;18.20;84.90;;;;;;5047630;28;19948;-68
2022/12/15 11:26:48;;;;;;;;;;;18.10;84.60;;;;;;5046085;28;20260;-68
2022/12/15 11:29:18;;;;;;;;;;;18.10;84.20;;;;;;5048535;28;19915;-69
2022/12/15 11:31:46;;;;;;;;;;;18.00;84.80;;;;;;5049452;28;20296;-67
2022/12/15 11:34:14;;;;;;;;;;;18.00;85.00;;;;;;5045267;28;19932;-68
2022/12/15 11:36:43;;;;;;;;;;;18.10;84.80;;;;;;5045154;28;20068;-66
2022/12/15 11:39:20;;;;;;;;;;;18.10;85.00;;;;;;5045639;28;19927;-68
2022/12/15 11:41:58;;;;;;;;;;;18.00;86.10;;;;;;5046423;28;20369;-69
2022/12/15 11:44:31;;;;;;;;;;;18.10;86.70;;;;;;5045284;28;20011;-66
2022/12/15 11:47:16;;;;;;;;;;;18.10;87.40;;;;;;5044258;28;19931;-69
2022/12/15 11:49:50;;;;;;;;;;;18.10;87.00;;;;;;5045592;28;19909;-66
2022/12/15 11:52:37;;;;;;;;;;;18.10;86.50;;;;;;5044453;28;19963;-69
2022/12/15 11:55:15;;;;;;;;;;;18.20;86.40;;;;;;5046811;28;19913;-69
2022/12/15 11:57:53;;;;;;;;;;;18.10;87.00;;;;;;5044040;28;19917;-70
2022/12/15 12:00:22;;;;;;;;;;;18.00;87.30;;;;;;5045125;28;19909;-70
2022/12/15 12:02:59;;;;;;;;;;;18.00;87.50;;;;;;5042062;28;20381;-70
2022/12/15 12:05:39;;;;;;;;;;;18.00;87.70;;;;;;5038742;28;20285;-68
2022/12/15 12:08:06;;;;;;;;;;;17.90;87.90;;;;;;5050611;28;20313;-68
2022/12/15 12:10:50;;;;;;;;;;;17.90;87.00;;;;;;5054978;28;19915;-67
2022/12/15 12:13:30;;;;;;;;;;;17.90;85.90;;;;;;5056288;28;20664;-67
2022/12/15 12:16:17;;;;;;;;;;;17.90;85.10;;;;;;5035131;28;20293;-69
2022/12/15 12:18:56;;;;;;;;;;;17.90;84.70;;;;;;5021821;28;19948;-67
2022/12/15 12:21:38;;;;;;;;;;;17.90;84.70;;;;;;5036225;28;20042;-69
2022/12/15 12:24:33;;;;;;;;;;;17.80;85.00;;;;;;5036397;28;19962;-66
2022/12/15 12:27:03;;;;;;;;;;;17.90;85.80;;;;;;5030139;28;20083;-67
2022/12/15 12:29:43;;;;;;;;;;;18.00;89.60;;;;;;5034661;28;20000;-68
2022/12/15 12:32:28;;;;;;;;;;;17.80;90.90;;;;;;5036361;28;19916;-68
2022/12/15 12:35:13;;;;;;;;;;;17.80;91.50;;;;;;5035326;28;19917;-67
2022/12/15 12:37:43;;;;;;;;;;;17.70;90.80;;;;;;5034586;28;20372;-68
2022/12/15 12:40:17;;;;;;;;;;;17.50;90.10;;;;;;5036316;28;19968;-70
2022/12/15 12:42:56;;;;;;;;;;;17.40;90.30;;;;;;5033635;28;20030;-68
2022/12/15 12:45:26;;;;;;;;;;;17.40;90.10;;;;;;5048759;28;19908;-67
2022/12/15 12:47:54;;;;;;;;;;;17.40;90.30;;;;;;5054748;28;20635;-67
2022/12/15 12:50:23;;;;;;;;;;;17.30;90.10;;;;;;5056281;28;19966;-68
2022/12/15 12:52:54;;;;;;;;;;;17.30;89.50;;;;;;5054054;28;20007;-68
2022/12/15 12:55:22;;;;;;;;;;;17.30;88.20;;;;;;5054701;28;19916;-68
2022/12/15 12:57:49;;;;;;;;;;;17.40;87.60;;;;;;5052975;28;19920;-69
2022/12/15 13:00:19;;;;;;;;;;;17.30;87.10;;;;;;5055083;28;19913;-67
2022/12/15 13:03:05;;;;;;;;;;;17.30;87.20;;;;;;5053828;28;20357;-67
2022/12/15 13:05:36;;;;;;;;;;;17.30;88.70;;;;;;5052701;28;19908;-68
2022/12/15 13:08:05;;;;;;;;;;;17.30;90.40;;;;;;5055113;28;19921;-68
2022/12/15 13:10:35;;;;;;;;;;;17.30;91.50;;;;;;5054940;28;20314;-69
2022/12/15 13:13:36;;;;;;;;;;;17.10;92.20;;;;;;5054182;28;19909;-69
2022/12/15 13:16:09;;;;;;;;;;;17.00;92.10;;;;;;5054795;28;19908;-67
2022/12/15 13:18:54;;;;;;;;;;;16.90;90.80;;;;;;5053956;28;19915;-68
2022/12/15 13:21:47;;;;;;;;;;;16.90;90.80;;;;;;5055149;28;19912;-68
2022/12/15 13:24:26;;;;;;;;;;;16.80;90.20;;;;;;5054056;28;20373;-66
2022/12/15 13:26:52;;;;;;;;;;;16.90;88.80;;;;;;5051750;28;19931;-69
2022/12/15 13:29:22;;;;;;;;;;;16.90;87.80;;;;;;5055534;28;19908;-69
2022/12/15 13:31:49;;;;;;;;;;;16.90;88.10;;;;;;5052792;28;20353;-67
2022/12/15 13:34:17;;;;;;;;;;;16.90;86.50;;;;;;5050785;28;20289;-69
2022/12/15 13:36:45;;;;;;;;;;;17.00;85.60;;;;;;5032763;28;20335;-68
2022/12/15 13:39:11;;;;;;;;;;;17.00;85.50;;;;;;5034462;28;19909;-67
2022/12/15 13:41:41;;;;;;;;;;;17.10;85.20;;;;;;5034046;28;19909;-69
2022/12/15 13:44:17;;;;;;;;;;;17.10;85.50;;;;;;5039928;28;19917;-69
2022/12/15 13:46:45;;;;;;;;;;;17.10;87.40;;;;;;5052672;28;19908;-67
2022/12/15 13:49:14;;;;;;;;;;;17.10;90.50;;;;;;5053594;28;19908;-68
2022/12/15 13:51:44;;;;;;;;;;;17.00;91.10;;;;;;5052642;28;20011;-66
2022/12/15 13:54:20;;;;;;;;;;;16.70;90.40;;;;;;5053968;28;20315;-68
2022/12/15 13:56:49;;;;;;;;;;;16.60;91.80;;;;;;5052734;28;19913;-67
2022/12/15 13:59:25;;;;;;;;;;;16.40;91.80;;;;;;5054158;28;19924;-71
2022/12/15 14:01:52;;;;;;;;;;;16.50;91.50;;;;;;5053536;28;19923;-68
2022/12/15 14:04:19;;;;;;;;;;;16.40;91.50;;;;;;5054438;28;19987;-68
2022/12/15 14:06:47;;;;;;;;;;;16.30;91.20;;;;;;5052027;28;19967;-69
2022/12/15 14:09:15;;;;;;;;;;;16.30;91.50;;;;;;5054118;28;19943;-69
2022/12/15 14:11:43;;;;;;;;;;;16.30;91.60;;;;;;5053988;28;19920;-69
2022/12/15 14:14:30;;;;;;;;;;;16.30;92.00;;;;;;5053859;28;19955;-69
2022/12/15 14:17:16;;;;;;;;;;;16.30;90.90;;;;;;5052468;28;19987;-67
2022/12/15 14:19:45;;;;;;;;;;;16.30;90.70;;;;;;5053808;28;19908;-70
2022/12/15 14:22:22;;;;;;;;;;;16.40;90.90;;;;;;5053659;28;19995;-69
2022/12/15 14:24:50;;;;;;;;;;;16.40;91.10;;;;;;5054787;28;19958;-66
2022/12/15 14:27:24;;;;;;;;;;;16.40;91.40;;;;;;5057727;28;19974;-68
2022/12/15 14:30:08;;;;;;;;;;;16.40;91.90;;;;;;5056933;28;19919;-69
2022/12/15 14:32:34;;;;;;;;;;;16.40;92.00;;;;;;5057998;28;19909;-68
2022/12/15 14:35:01;;;;;;;;;;;16.40;92.40;;;;;;5056101;28;19916;-69
2022/12/15 14:37:28;;;;;;;;;;;16.30;92.50;;;;;;5058676;28;19915;-68
2022/12/15 14:39:55;;;;;;;;;;;16.20;92.50;;;;;;5056052;28;19913;-68
2022/12/15 14:42:23;;;;;;;;;;;16.20;92.40;;;;;;5056674;28;19912;-68
2022/12/15 14:44:50;;;;;;;;;;;16.10;92.80;;;;;;5056207;28;20837;-68
2022/12/15 14:47:17;;;;;;;;;;;16.00;92.30;;;;;;5058322;28;19917;-68
2022/12/15 14:49:44;;;;;;;;;;;16.00;91.90;;;;;;5058633;28;19962;-68
2022/12/15 14:52:31;;;;;;;;;;;16.00;91.80;;;;;;5056401;28;19904;-67
2022/12/15 14:55:20;;;;;;;;;;;16.00;91.20;;;;;;5055687;28;20708;-67
2022/12/15 14:57:47;;;;;;;;;;;16.00;91.10;;;;;;5057919;28;20288;-67
2022/12/15 15:00:24;;;;;;;;;;;16.00;91.50;;;;;;5056951;28;19908;-67
2022/12/15 15:03:09;;;;;;;;;;;16.00;91.40;;;;;;5057061;28;20388;-68
2022/12/15 15:05:39;;;;;;;;;;;16.00;90.50;;;;;;5057054;28;19912;-66
2022/12/15 15:08:05;;;;;;;;;;;16.00;90.30;;;;;;5056148;28;19920;-69
2022/12/15 15:10:32;;;;;;;;;;;16.00;91.00;;;;;;5058058;28;19909;-69
2022/12/15 15:12:59;;;;;;;;;;;16.10;91.30;;;;;;5055775;28;20404;-69
2022/12/15 15:15:26;;;;;;;;;;;16.00;90.30;;;;;;5056962;28;19919;-67
2022/12/15 15:17:54;;;;;;;;;;;16.00;90.60;;;;;;5057215;28;19931;-66
2022/12/15 15:20:30;;;;;;;;;;;16.00;90.40;;;;;;5055575;28;19919;-67
2022/12/15 15:23:17;;;;;;;;;;;16.10;90.70;;;;;;5055067;28;20041;-68
2022/12/15 15:25:49;;;;;;;;;;;16.00;90.80;;;;;;5044132;28;20634;-66
2022/12/15 15:28:19;;;;;;;;;;;16.00;91.00;;;;;;5035154;28;19921;-67
2022/12/15 15:30:50;;;;;;;;;;;16.00;90.70;;;;;;5037503;28;19909;-68
2022/12/15 15:33:18;;;;;;;;;;;15.90;91.00;;;;;;5037989;28;19925;-69
2022/12/15 15:35:48;;;;;;;;;;;16.00;90.80;;;;;;5056124;28;19995;-65
2022/12/15 15:38:21;;;;;;;;;;;15.90;90.90;;;;;;5045559;28;19920;-70
2022/12/15 15:40:49;;;;;;;;;;;15.90;91.20;;;;;;5056133;28;19952;-68
2022/12/15 15:43:17;;;;;;;;;;;15.80;91.00;;;;;;5054930;28;19909;-68
2022/12/15 15:45:43;;;;;;;;;;;15.90;91.20;;;;;;5056584;28;19909;-68
2022/12/15 15:48:22;;;;;;;;;;;16.00;91.40;;;;;;5055669;28;19917;-69
2022/12/15 15:50:49;;;;;;;;;;;16.00;91.30;;;;;;5056630;28;20062;-68
2022/12/15 15:53:18;;;;;;;;;;;15.90;91.10;;;;;;5053911;28;19908;-70
2022/12/15 15:55:45;;;;;;;;;;;15.90;91.10;;;;;;5057359;28;20111;-68
2022/12/15 15:58:12;;;;;;;;;;;15.90;90.60;;;;;;5056287;28;20357;-68
2022/12/15 16:00:39;;;;;;;;;;;15.80;90.20;;;;;;5055305;28;19995;-67
2022/12/15 16:03:06;;;;;;;;;;;15.80;90.60;;;;;;5054564;28;19908;-67
2022/12/15 16:05:33;;;;;;;;;;;15.90;90.50;;;;;;5055933;28;20384;-69
2022/12/15 16:08:01;;;;;;;;;;;15.90;90.10;;;;;;5056803;28;19924;-68
2022/12/15 16:10:27;;;;;;;;;;;15.90;88.70;;;;;;5056111;28;19998;-68
2022/12/15 16:12:55;;;;;;;;;;;15.90;87.20;;;;;;5056028;28;19912;-69
2022/12/15 16:15:24;;;;;;;;;;;15.90;86.30;;;;;;5052631;28;20332;-68
2022/12/15 16:17:51;;;;;;;;;;;15.80;85.50;;;;;;5040441;28;19952;-68
2022/12/15 16:20:20;;;;;;;;;;;15.80;86.00;;;;;;5036558;28;19913;-70
2022/12/15 16:22:49;;;;;;;;;;;15.80;86.70;;;;;;5035932;28;19987;-69
2022/12/15 16:25:36;;;;;;;;;;;15.70;87.00;;;;;;5034710;28;19917;-70
2022/12/15 16:28:05;;;;;;;;;;;15.80;88.40;;;;;;5036250;28;20457;-69
2022/12/15 16:30:31;;;;;;;;;;;15.70;87.80;;;;;;5036281;28;19913;-68
2022/12/15 16:32:58;;;;;;;;;;;15.70;87.60;;;;;;5035835;28;20289;-68
2022/12/15 16:35:25;;;;;;;;;;;15.70;87.40;;;;;;5033706;28;19912;-67
2022/12/15 16:37:52;;;;;;;;;;;15.60;88.20;;;;;;5036086;28;19943;-67
2022/12/15 16:40:20;;;;;;;;;;;15.70;88.50;;;;;;5034570;28;19913;-68
2022/12/15 16:42:51;;;;;;;;;;;15.70;88.90;;;;;;5035781;28;19908;-67
2022/12/15 16:45:19;;;;;;;;;;;15.60;91.00;;;;;;5035548;28;21637;-67
2022/12/15 16:47:45;;;;;;;;;;;15.50;92.30;;;;;;5035038;28;20353;-66
2022/12/15 16:50:13;;;;;;;;;;;15.50;93.80;;;;;;5033578;28;20626;-67
2022/12/15 16:52:41;;;;;;;;;;;15.30;93.80;;;;;;5035573;28;19920;-69